sensor_id;sensor_type;location;lat;lon;timestamp;pressure;altitude;pressure_sealevel;temperature;humidity
2268;BME280;11052;43.338;25.502;2023-04-19T00:00:04;100284.88;;;10.35;100.00
2268;BME280;11052;43.338;25.502;2023-04-19T00:02:33;100289.56;;;10.22;100.00
2268;BME280;11052;43.338;25.502;2023-04-19T00:05:02;100286.19;;;10.18;100.00
2268;BME280;11052;43.338;25.502;2023-04-19T00:07:29;100284.34;;;10.24;100.00
2268;BME280;11052;43.338;25.502;2023-04-19T00:09:56;100287.16;;;10.14;100.00
2268;BME280;11052;43.338;25.502;2023-04-19T00:12:23;100284.75;;;10.08;100.00
2268;BME280;11052;43.338;25.502;2023-04-19T00:14:50;100278.91;;;10.02;100.00
2268;BME280;11052;43.338;25.502;2023-04-19T00:17:17;100274.59;;;10.01;100.00
2268;BME280;11052;43.338;25.502;2023-04-19T00:19:45;100278.09;;;10.00;100.00
2268;BME280;11052;43.338;25.502;2023-04-19T00:22:14;100272.69;;;10.07;100.00
2268;BME280;11052;43.338;25.502;2023-04-19T00:24:41;100274.59;;;10.01;100.00
2268;BME280;11052;43.338;25.502;2023-04-19T00:27:08;100271.59;;;10.16;100.00
2268;BME280;11052;43.338;25.502;2023-04-19T00:29:35;100276.78;;;10.16;100.00
2268;BME280;11052;43.338;25.502;2023-04-19T00:32:03;100270.75;;;10.15;100.00
2268;BME280;11052;43.338;25.502;2023-04-19T00:34:30;100271.84;;;10.07;100.00
2268;BME280;11052;43.338;25.502;2023-04-19T00:36:57;100267.38;;;10.12;100.00
2268;BME280;11052;43.338;25.502;2023-04-19T00:39:26;100269.00;;;10.16;100.00
2268;BME280;11052;43.338;25.502;2023-04-19T00:41:53;100269.16;;;10.10;100.00
2268;BME280;11052;43.338;25.502;2023-04-19T00:44:21;100270.28;;;10.01;100.00
2268;BME280;11052;43.338;25.502;2023-04-19T00:46:49;100271.25;;;9.97;100.00
2268;BME280;11052;43.338;25.502;2023-04-19T00:49:17;100273.63;;;10.05;100.00
2268;BME280;11052;43.338;25.502;2023-04-19T00:51:44;100275.38;;;10.04;100.00
2268;BME280;11052;43.338;25.502;2023-04-19T00:54:12;100266.53;;;10.11;100.00
2268;BME280;11052;43.338;25.502;2023-04-19T00:56:43;100274.41;;;10.08;100.00
2268;BME280;11052;43.338;25.502;2023-04-19T00:59:11;100264.94;;;10.07;100.00
2268;BME280;11052;43.338;25.502;2023-04-19T01:01:38;100266.50;;;10.13;100.00
2268;BME280;11052;43.338;25.502;2023-04-19T01:04:06;100268.91;;;10.21;100.00
2268;BME280;11052;43.338;25.502;2023-04-19T01:06:34;100265.66;;;10.12;100.00
2268;BME280;11052;43.338;25.502;2023-04-19T01:09:01;100267.25;;;10.16;100.00
2268;BME280;11052;43.338;25.502;2023-04-19T01:11:29;100258.69;;;10.14;100.00
2268;BME280;11052;43.338;25.502;2023-04-19T01:13:57;100263.78;;;10.17;100.00
2268;BME280;11052;43.338;25.502;2023-04-19T01:16:25;100262.72;;;10.25;100.00
2268;BME280;11052;43.338;25.502;2023-04-19T01:18:52;100253.25;;;10.24;100.00
2268;BME280;11052;43.338;25.502;2023-04-19T01:21:19;100253.31;;;10.22;100.00
2268;BME280;11052;43.338;25.502;2023-04-19T01:23:48;100241.44;;;10.13;100.00
2268;BME280;11052;43.338;25.502;2023-04-19T01:26:15;100236.34;;;10.10;100.00
2268;BME280;11052;43.338;25.502;2023-04-19T01:28:43;100237.38;;;10.05;100.00
2268;BME280;11052;43.338;25.502;2023-04-19T01:31:10;100233.66;;;10.13;100.00
2268;BME280;11052;43.338;25.502;2023-04-19T01:33:37;100228.59;;;10.10;100.00
2268;BME280;11052;43.338;25.502;2023-04-19T01:36:04;100237.06;;;10.15;100.00
2268;BME280;11052;43.338;25.502;2023-04-19T01:38:32;100237.34;;;10.06;100.00
2268;BME280;11052;43.338;25.502;2023-04-19T01:41:01;100238.97;;;10.09;100.00
2268;BME280;11052;43.338;25.502;2023-04-19T01:43:28;100231.31;;;10.06;100.00
2268;BME280;11052;43.338;25.502;2023-04-19T01:45:55;100238.13;;;10.08;100.00
2268;BME280;11052;43.338;25.502;2023-04-19T01:48:22;100232.28;;;10.02;100.00
2268;BME280;11052;43.338;25.502;2023-04-19T01:50:49;100228.75;;;10.04;100.00
2268;BME280;11052;43.338;25.502;2023-04-19T01:53:16;100235.63;;;10.05;100.00
2268;BME280;11052;43.338;25.502;2023-04-19T01:55:43;100230.72;;;9.96;100.00
2268;BME280;11052;43.338;25.502;2023-04-19T01:58:11;100232.50;;;9.94;100.00
2268;BME280;11052;43.338;25.502;2023-04-19T02:00:38;100228.94;;;9.98;100.00
2268;BME280;11052;43.338;25.502;2023-04-19T02:03:05;100227.25;;;9.97;100.00
2268;BME280;11052;43.338;25.502;2023-04-19T02:05:32;100228.72;;;10.06;100.00
2268;BME280;11052;43.338;25.502;2023-04-19T02:08:00;100231.38;;;10.03;100.00
2268;BME280;11052;43.338;25.502;2023-04-19T02:10:27;100235.59;;;10.07;100.00
2268;BME280;11052;43.338;25.502;2023-04-19T02:12:54;100226.28;;;10.00;100.00
2268;BME280;11052;43.338;25.502;2023-04-19T02:15:22;100226.94;;;10.08;100.00
2268;BME280;11052;43.338;25.502;2023-04-19T02:17:49;100227.91;;;10.04;100.00
2268;BME280;11052;43.338;25.502;2023-04-19T02:20:17;100234.03;;;10.01;100.00
2268;BME280;11052;43.338;25.502;2023-04-19T02:22:44;100234.78;;;10.05;100.00
2268;BME280;11052;43.338;25.502;2023-04-19T02:25:12;100228.84;;;10.01;100.00
2268;BME280;11052;43.338;25.502;2023-04-19T02:27:40;100235.69;;;10.04;100.00
2268;BME280;11052;43.338;25.502;2023-04-19T02:30:08;100235.63;;;10.05;100.00
2268;BME280;11052;43.338;25.502;2023-04-19T02:32:36;100232.47;;;9.96;100.00
2268;BME280;11052;43.338;25.502;2023-04-19T02:35:04;100231.59;;;9.95;100.00
2268;BME280;11052;43.338;25.502;2023-04-19T02:37:31;100239.88;;;10.08;100.00
2268;BME280;11052;43.338;25.502;2023-04-19T02:39:58;100233.09;;;10.04;100.00
2268;BME280;11052;43.338;25.502;2023-04-19T02:42:25;100228.66;;;10.07;100.00
2268;BME280;11052;43.338;25.502;2023-04-19T02:44:52;100222.69;;;10.05;100.00
2268;BME280;11052;43.338;25.502;2023-04-19T02:47:19;100221.63;;;10.12;100.00
2268;BME280;11052;43.338;25.502;2023-04-19T02:49:48;100223.25;;;10.15;100.00
2268;BME280;11052;43.338;25.502;2023-04-19T02:52:15;100225.06;;;10.13;100.00
2268;BME280;11052;43.338;25.502;2023-04-19T02:54:42;100217.28;;;10.13;100.00
2268;BME280;11052;43.338;25.502;2023-04-19T02:57:09;100225.00;;;10.14;100.00
2268;BME280;11052;43.338;25.502;2023-04-19T02:59:36;100216.53;;;10.09;100.00
2268;BME280;11052;43.338;25.502;2023-04-19T03:02:03;100221.88;;;10.03;100.00
2268;BME280;11052;43.338;25.502;2023-04-19T03:04:30;100224.56;;;10.00;100.00
2268;BME280;11052;43.338;25.502;2023-04-19T03:06:59;100220.00;;;10.08;100.00
2268;BME280;11052;43.338;25.502;2023-04-19T03:09:26;100230.41;;;10.07;100.00
2268;BME280;11052;43.338;25.502;2023-04-19T03:11:53;100220.75;;;10.12;100.00
2268;BME280;11052;43.338;25.502;2023-04-19T03:14:20;100218.09;;;10.15;100.00
2268;BME280;11052;43.338;25.502;2023-04-19T03:16:47;100226.28;;;10.00;100.00
2268;BME280;11052;43.338;25.502;2023-04-19T03:19:14;100215.81;;;10.04;100.00
2268;BME280;11052;43.338;25.502;2023-04-19T03:21:41;100220.72;;;10.13;100.00
2268;BME280;11052;43.338;25.502;2023-04-19T03:24:10;100223.34;;;10.12;100.00
2268;BME280;11052;43.338;25.502;2023-04-19T03:26:37;100224.78;;;10.24;100.00
2268;BME280;11052;43.338;25.502;2023-04-19T03:29:04;100225.38;;;10.02;100.00
2268;BME280;11052;43.338;25.502;2023-04-19T03:31:31;100222.06;;;9.97;100.00
2268;BME280;11052;43.338;25.502;2023-04-19T03:33:58;100226.44;;;9.95;100.00
2268;BME280;11052;43.338;25.502;2023-04-19T03:36:25;100226.38;;;9.97;100.00
2268;BME280;11052;43.338;25.502;2023-04-19T03:38:52;100226.59;;;9.89;100.00
2268;BME280;11052;43.338;25.502;2023-04-19T03:41:22;100220.50;;;9.92;100.00
2268;BME280;11052;43.338;25.502;2023-04-19T03:43:50;100224.72;;;9.94;100.00
2268;BME280;11052;43.338;25.502;2023-04-19T03:46:17;100220.34;;;9.96;100.00
2268;BME280;11052;43.338;25.502;2023-04-19T03:48:44;100226.09;;;10.07;100.00
2268;BME280;11052;43.338;25.502;2023-04-19T03:51:11;100224.97;;;10.16;100.00
2268;BME280;11052;43.338;25.502;2023-04-19T03:53:40;100231.66;;;10.25;100.00
2268;BME280;11052;43.338;25.502;2023-04-19T03:56:07;100233.25;;;10.29;100.00
2268;BME280;11052;43.338;25.502;2023-04-19T03:58:36;100229.72;;;10.31;100.00
2268;BME280;11052;43.338;25.502;2023-04-19T04:01:03;100237.31;;;10.37;100.00
2268;BME280;11052;43.338;25.502;2023-04-19T04:03:31;100241.44;;;10.43;100.00
2268;BME280;11052;43.338;25.502;2023-04-19T04:05:58;100239.72;;;10.42;100.00
2268;BME280;11052;43.338;25.502;2023-04-19T04:08:25;100243.84;;;10.49;100.00
2268;BME280;11052;43.338;25.502;2023-04-19T04:10:53;100242.13;;;10.48;100.00
2268;BME280;11052;43.338;25.502;2023-04-19T04:13:20;100240.22;;;10.55;100.00
2268;BME280;11052;43.338;25.502;2023-04-19T04:15:49;100235.91;;;10.54;100.00
2268;BME280;11052;43.338;25.502;2023-04-19T04:18:16;100236.84;;;10.51;100.00
2268;BME280;11052;43.338;25.502;2023-04-19T04:20:43;100237.75;;;10.50;100.00
2268;BME280;11052;43.338;25.502;2023-04-19T04:23:10;100235.16;;;10.50;100.00
2268;BME280;11052;43.338;25.502;2023-04-19T04:25:39;100244.72;;;10.48;100.00
2268;BME280;11052;43.338;25.502;2023-04-19T04:28:07;100249.16;;;10.44;100.00
2268;BME280;11052;43.338;25.502;2023-04-19T04:30:34;100243.97;;;10.44;100.00
2268;BME280;11052;43.338;25.502;2023-04-19T04:33:03;100249.09;;;10.46;100.00
2268;BME280;11052;43.338;25.502;2023-04-19T04:35:30;100250.09;;;10.42;100.00
2268;BME280;11052;43.338;25.502;2023-04-19T04:37:57;100251.06;;;10.39;100.00
2268;BME280;11052;43.338;25.502;2023-04-19T04:40:25;100251.25;;;10.33;100.00
2268;BME280;11052;43.338;25.502;2023-04-19T04:42:52;100249.56;;;10.32;100.00
2268;BME280;11052;43.338;25.502;2023-04-19T04:45:19;100253.88;;;10.32;100.00
2268;BME280;11052;43.338;25.502;2023-04-19T04:47:46;100251.53;;;10.24;100.00
2268;BME280;11052;43.338;25.502;2023-04-19T04:50:15;100250.09;;;10.12;100.00
2268;BME280;11052;43.338;25.502;2023-04-19T04:52:42;100258.94;;;10.05;100.00
2268;BME280;11052;43.338;25.502;2023-04-19T04:55:09;100251.03;;;10.10;100.00
2268;BME280;11052;43.338;25.502;2023-04-19T04:57:36;100256.19;;;10.11;100.00
2268;BME280;11052;43.338;25.502;2023-04-19T05:00:04;100262.28;;;10.09;100.00
2268;BME280;11052;43.338;25.502;2023-04-19T05:02:32;100249.44;;;10.06;100.00
2268;BME280;11052;43.338;25.502;2023-04-19T05:04:59;100256.25;;;10.08;100.00
2268;BME280;11052;43.338;25.502;2023-04-19T05:07:27;100262.28;;;10.09;100.00
2268;BME280;11052;43.338;25.502;2023-04-19T05:09:54;100259.84;;;10.04;100.00
2268;BME280;11052;43.338;25.502;2023-04-19T05:12:21;100260.59;;;10.08;100.00
2268;BME280;11052;43.338;25.502;2023-04-19T05:14:48;100257.41;;;9.98;100.00
2268;BME280;11052;43.338;25.502;2023-04-19T05:17:15;100259.13;;;9.99;100.00
2268;BME280;11052;43.338;25.502;2023-04-19T05:19:43;100260.91;;;9.97;100.00
2268;BME280;11052;43.338;25.502;2023-04-19T05:22:10;100261.16;;;9.88;100.00
2268;BME280;11052;43.338;25.502;2023-04-19T05:24:39;100266.47;;;9.83;100.00
2268;BME280;11052;43.338;25.502;2023-04-19T05:27:06;100267.00;;;9.95;100.00
2268;BME280;11052;43.338;25.502;2023-04-19T05:29:34;100265.41;;;9.91;100.00
2268;BME280;11052;43.338;25.502;2023-04-19T05:32:01;100271.44;;;9.91;100.00
2268;BME280;11052;43.338;25.502;2023-04-19T05:34:28;100269.69;;;9.92;100.00
2268;BME280;11052;43.338;25.502;2023-04-19T05:36:55;100270.28;;;10.01;100.00
2268;BME280;11052;43.338;25.502;2023-04-19T05:39:22;100271.97;;;10.02;100.00
2268;BME280;11052;43.338;25.502;2023-04-19T05:41:50;100276.31;;;10.02;100.00
2268;BME280;11052;43.338;25.502;2023-04-19T05:44:18;100275.53;;;9.98;100.00
2268;BME280;11052;43.338;25.502;2023-04-19T05:46:45;100278.72;;;10.08;100.00
2268;BME280;11052;43.338;25.502;2023-04-19T05:49:12;100277.78;;;10.10;100.00
2268;BME280;11052;43.338;25.502;2023-04-19T05:51:39;100276.22;;;10.05;100.00
2268;BME280;11052;43.338;25.502;2023-04-19T05:54:06;100276.97;;;10.08;100.00
2268;BME280;11052;43.338;25.502;2023-04-19T05:56:37;100280.47;;;10.07;100.00
2268;BME280;11052;43.338;25.502;2023-04-19T05:59:05;100281.91;;;10.17;100.00
2268;BME280;11052;43.338;25.502;2023-04-19T06:01:32;100286.28;;;10.15;100.00
2268;BME280;11052;43.338;25.502;2023-04-19T06:04:00;100291.38;;;10.18;100.00
2268;BME280;11052;43.338;25.502;2023-04-19T06:06:27;100289.69;;;10.17;100.00
2268;BME280;11052;43.338;25.502;2023-04-19T06:08:54;100294.50;;;10.31;100.00
2268;BME280;11052;43.338;25.502;2023-04-19T06:11:21;100287.69;;;10.27;100.00
2268;BME280;11052;43.338;25.502;2023-04-19T06:13:48;100294.38;;;10.36;100.00
2268;BME280;11052;43.338;25.502;2023-04-19T06:16:18;100295.91;;;10.41;100.00
2268;BME280;11052;43.338;25.502;2023-04-19T06:18:45;100303.56;;;10.44;100.00
2268;BME280;11052;43.338;25.502;2023-04-19T06:21:12;100294.31;;;10.37;100.00
2268;BME280;11052;43.338;25.502;2023-04-19T06:23:39;100299.53;;;10.36;100.00
2268;BME280;11052;43.338;25.502;2023-04-19T06:26:06;100293.47;;;10.37;100.00
2268;BME280;11052;43.338;25.502;2023-04-19T06:28:33;100304.50;;;10.42;100.00
2268;BME280;11052;43.338;25.502;2023-04-19T06:31:01;100296.75;;;10.42;100.00
2268;BME280;11052;43.338;25.502;2023-04-19T06:33:30;100298.84;;;10.59;100.00
2268;BME280;11052;43.338;25.502;2023-04-19T06:35:57;100301.69;;;10.49;100.00
2268;BME280;11052;43.338;25.502;2023-04-19T06:38:24;100297.13;;;10.58;100.00
2268;BME280;11052;43.338;25.502;2023-04-19T06:40:51;100297.84;;;10.63;100.00
2268;BME280;11052;43.338;25.502;2023-04-19T06:43:18;100303.13;;;10.88;100.00
2268;BME280;11052;43.338;25.502;2023-04-19T06:45:45;100297.75;;;10.94;100.00
2268;BME280;11052;43.338;25.502;2023-04-19T06:48:13;100304.84;;;10.89;100.00
2268;BME280;11052;43.338;25.502;2023-04-19T06:50:41;100306.94;;;11.04;100.00
2268;BME280;11052;43.338;25.502;2023-04-19T06:53:08;100297.13;;;11.13;100.00
2268;BME280;11052;43.338;25.502;2023-04-19T06:55:35;100305.28;;;11.28;100.00
2268;BME280;11052;43.338;25.502;2023-04-19T06:58:02;100301.63;;;11.33;100.00
2268;BME280;11052;43.338;25.502;2023-04-19T07:00:32;100304.97;;;11.37;100.00
2268;BME280;11052;43.338;25.502;2023-04-19T07:02:59;100304.56;;;11.49;100.00
2268;BME280;11052;43.338;25.502;2023-04-19T07:05:26;100314.63;;;11.58;100.00
2268;BME280;11052;43.338;25.502;2023-04-19T07:07:55;100304.78;;;11.68;100.00
2268;BME280;11052;43.338;25.502;2023-04-19T07:10:22;100304.53;;;11.75;100.00
2268;BME280;11052;43.338;25.502;2023-04-19T07:12:50;100304.94;;;11.90;100.00
2268;BME280;11052;43.338;25.502;2023-04-19T07:15:17;100307.34;;;12.18;100.00
2268;BME280;11052;43.338;25.502;2023-04-19T07:17:44;100307.31;;;12.19;100.00
2268;BME280;11052;43.338;25.502;2023-04-19T07:20:11;100314.59;;;12.33;100.00
2268;BME280;11052;43.338;25.502;2023-04-19T07:22:38;100297.91;;;12.38;100.00
2268;BME280;11052;43.338;25.502;2023-04-19T07:25:08;100291.47;;;12.48;100.00
2268;BME280;11052;43.338;25.502;2023-04-19T07:27:35;100295.34;;;12.60;100.00
2268;BME280;11052;43.338;25.502;2023-04-19T07:30:03;100298.16;;;12.77;100.00
2268;BME280;11052;43.338;25.502;2023-04-19T07:32:30;100302.03;;;12.89;100.00
2268;BME280;11052;43.338;25.502;2023-04-19T07:34:57;100306.28;;;12.92;100.00
2268;BME280;11052;43.338;25.502;2023-04-19T07:37:24;100310.09;;;13.03;100.00
2268;BME280;11052;43.338;25.502;2023-04-19T07:39:52;100313.31;;;13.10;100.00
2268;BME280;11052;43.338;25.502;2023-04-19T07:42:21;100308.56;;;12.99;100.00
2268;BME280;11052;43.338;25.502;2023-04-19T07:44:48;100310.44;;;13.18;100.00
2268;BME280;11052;43.338;25.502;2023-04-19T07:47:15;100310.53;;;13.36;100.00
2268;BME280;11052;43.338;25.502;2023-04-19T07:49:42;100319.78;;;13.43;100.00
2268;BME280;11052;43.338;25.502;2023-04-19T07:52:09;100309.13;;;13.50;100.00
2268;BME280;11052;43.338;25.502;2023-04-19T07:54:37;100310.44;;;13.60;100.00
2268;BME280;11052;43.338;25.502;2023-04-19T07:57:04;100302.09;;;13.72;100.00
2268;BME280;11052;43.338;25.502;2023-04-19T07:59:33;100307.56;;;13.66;100.00
2268;BME280;11052;43.338;25.502;2023-04-19T08:02:00;100302.09;;;13.72;100.00
2268;BME280;11052;43.338;25.502;2023-04-19T08:04:27;100298.53;;;13.93;100.00
2268;BME280;11052;43.338;25.502;2023-04-19T08:06:54;100295.09;;;14.11;100.00
2268;BME280;11052;43.338;25.502;2023-04-19T08:09:21;100296.38;;;14.22;100.00
2268;BME280;11052;43.338;25.502;2023-04-19T08:11:48;100299.63;;;14.27;100.00
2268;BME280;11052;43.338;25.502;2023-04-19T08:14:15;100300.31;;;14.51;100.00
2268;BME280;11052;43.338;25.502;2023-04-19T08:16:44;100297.69;;;14.69;100.00
2268;BME280;11052;43.338;25.502;2023-04-19T08:19:11;100293.25;;;14.71;100.00
2268;BME280;11052;43.338;25.502;2023-04-19T08:21:38;100297.25;;;14.79;100.00
2268;BME280;11052;43.338;25.502;2023-04-19T08:24:06;100294.81;;;14.93;100.00
2268;BME280;11052;43.338;25.502;2023-04-19T08:26:33;100295.03;;;15.24;100.00
2268;BME280;11052;43.338;25.502;2023-04-19T08:29:00;100295.47;;;15.15;100.00
2268;BME280;11052;43.338;25.502;2023-04-19T08:31:27;100304.06;;;15.17;100.00
2268;BME280;11052;43.338;25.502;2023-04-19T08:33:56;100297.59;;;15.07;100.00
2268;BME280;11052;43.338;25.502;2023-04-19T08:36:24;100297.47;;;15.10;100.00
2268;BME280;11052;43.338;25.502;2023-04-19T08:38:52;100299.75;;;14.99;100.00
2268;BME280;11052;43.338;25.502;2023-04-19T08:41:20;100302.47;;;14.79;100.00
2268;BME280;11052;43.338;25.502;2023-04-19T08:43:50;100298.09;;;14.79;100.00
2268;BME280;11052;43.338;25.502;2023-04-19T08:46:17;100304.13;;;14.62;100.00
2268;BME280;11052;43.338;25.502;2023-04-19T08:48:45;100297.69;;;14.69;100.00
2268;BME280;11052;43.338;25.502;2023-04-19T08:51:16;100305.63;;;14.85;100.00
2268;BME280;11052;43.338;25.502;2023-04-19T08:53:44;100293.97;;;14.92;100.00
2268;BME280;11052;43.338;25.502;2023-04-19T08:56:13;100286.34;;;14.88;100.00
2268;BME280;11052;43.338;25.502;2023-04-19T08:58:40;100294.66;;;14.96;100.00
2268;BME280;11052;43.338;25.502;2023-04-19T09:01:07;100287.84;;;14.93;100.00
2268;BME280;11052;43.338;25.502;2023-04-19T09:03:42;100294.63;;;15.15;100.00
2268;BME280;11052;43.338;25.502;2023-04-19T09:06:09;100283.03;;;15.20;100.00
2268;BME280;11052;43.338;25.502;2023-04-19T09:08:38;100289.41;;;15.32;100.00
2268;BME280;11052;43.338;25.502;2023-04-19T09:11:05;100282.34;;;15.34;100.00
2268;BME280;11052;43.338;25.502;2023-04-19T09:13:33;100286.47;;;15.57;100.00
2268;BME280;11052;43.338;25.502;2023-04-19T09:16:03;100281.00;;;15.94;100.00
2268;BME280;11052;43.338;25.502;2023-04-19T09:18:32;100277.81;;;16.05;100.00
2268;BME280;11052;43.338;25.502;2023-04-19T09:20:59;100286.06;;;15.97;100.00
2268;BME280;11052;43.338;25.502;2023-04-19T09:23:27;100285.50;;;16.08;100.00
2268;BME280;11052;43.338;25.502;2023-04-19T09:25:57;100283.25;;;16.18;100.00
2268;BME280;11052;43.338;25.502;2023-04-19T09:28:28;100280.88;;;16.13;100.00
2268;BME280;11052;43.338;25.502;2023-04-19T09:30:56;100289.00;;;16.24;100.00
2268;BME280;11052;43.338;25.502;2023-04-19T09:33:31;100280.47;;;16.21;100.00
2268;BME280;11052;43.338;25.502;2023-04-19T09:35:59;100274.31;;;16.22;100.00
2268;BME280;11052;43.338;25.502;2023-04-19T09:38:26;100276.78;;;16.41;100.00
2268;BME280;11052;43.338;25.502;2023-04-19T09:41:05;100284.97;;;16.34;100.00
2268;BME280;11052;43.338;25.502;2023-04-19T09:43:33;100277.88;;;16.36;100.00
2268;BME280;11052;43.338;25.502;2023-04-19T09:46:01;100283.94;;;16.53;100.00
2268;BME280;11052;43.338;25.502;2023-04-19T09:48:28;100279.03;;;16.47;100.00
2268;BME280;11052;43.338;25.502;2023-04-19T09:50:56;100282.44;;;16.64;100.00
2268;BME280;11052;43.338;25.502;2023-04-19T09:53:24;100280.13;;;16.58;100.00
2268;BME280;11052;43.338;25.502;2023-04-19T09:55:52;100280.94;;;16.12;100.00
2268;BME280;11052;43.338;25.502;2023-04-19T09:58:21;100280.56;;;16.35;100.00
2268;BME280;11052;43.338;25.502;2023-04-19T10:00:52;100274.63;;;16.47;100.00
2268;BME280;11052;43.338;25.502;2023-04-19T10:03:23;100270.63;;;16.73;100.00
2268;BME280;11052;43.338;25.502;2023-04-19T10:05:51;100273.41;;;16.86;100.00
2268;BME280;11052;43.338;25.502;2023-04-19T10:08:18;100268.66;;;16.92;100.00
2268;BME280;11052;43.338;25.502;2023-04-19T10:10:46;100273.97;;;16.91;100.00
2268;BME280;11052;43.338;25.502;2023-04-19T10:13:21;100266.47;;;17.30;100.00
2268;BME280;11052;43.338;25.502;2023-04-19T10:15:49;100270.59;;;17.49;100.00
2268;BME280;11052;43.338;25.502;2023-04-19T10:18:16;100265.59;;;17.74;100.00
2268;BME280;11052;43.338;25.502;2023-04-19T10:20:49;100263.84;;;17.75;100.00
2268;BME280;11052;43.338;25.502;2023-04-19T10:23:19;100263.59;;;17.63;100.00
2268;BME280;11052;43.338;25.502;2023-04-19T10:25:47;100264.19;;;17.38;100.00
2268;BME280;11052;43.338;25.502;2023-04-19T10:28:15;100264.94;;;17.26;100.00
2268;BME280;11052;43.338;25.502;2023-04-19T10:30:54;100262.31;;;17.26;100.00
2268;BME280;11052;43.338;25.502;2023-04-19T10:33:26;100258.69;;;17.43;100.00
2268;BME280;11052;43.338;25.502;2023-04-19T10:35:58;100254.66;;;17.37;100.00
2268;BME280;11052;43.338;25.502;2023-04-19T10:38:36;100259.53;;;17.44;100.00
2268;BME280;11052;43.338;25.502;2023-04-19T10:41:04;100259.91;;;17.37;100.00
2268;BME280;11052;43.338;25.502;2023-04-19T10:43:37;100255.72;;;17.49;100.00
2268;BME280;11052;43.338;25.502;2023-04-19T10:46:13;100255.50;;;17.96;100.00
2268;BME280;11052;43.338;25.502;2023-04-19T10:48:50;100258.34;;;18.34;100.00
2268;BME280;11052;43.338;25.502;2023-04-19T10:51:22;100256.84;;;18.30;100.00
2268;BME280;11052;43.338;25.502;2023-04-19T10:53:56;100251.38;;;18.62;100.00
2268;BME280;11052;43.338;25.502;2023-04-19T10:56:55;100248.28;;;18.14;100.00
2268;BME280;11052;43.338;25.502;2023-04-19T10:59:24;100249.91;;;18.29;100.00
2268;BME280;11052;43.338;25.502;2023-04-19T11:01:54;100240.88;;;18.07;100.00
2268;BME280;11052;43.338;25.502;2023-04-19T11:04:23;100246.09;;;18.21;100.00
2268;BME280;11052;43.338;25.502;2023-04-19T11:07:11;100246.06;;;18.35;100.00
2268;BME280;11052;43.338;25.502;2023-04-19T11:09:39;100235.91;;;18.57;100.00
2268;BME280;11052;43.338;25.502;2023-04-19T11:12:07;100233.41;;;18.83;100.00
2268;BME280;11052;43.338;25.502;2023-04-19T11:14:36;100239.00;;;18.91;100.00
2268;BME280;11052;43.338;25.502;2023-04-19T11:17:15;100234.88;;;18.87;100.00
2268;BME280;11052;43.338;25.502;2023-04-19T11:19:43;100225.63;;;18.81;100.00
2268;BME280;11052;43.338;25.502;2023-04-19T11:22:11;100227.81;;;18.75;100.00
2268;BME280;11052;43.338;25.502;2023-04-19T11:24:44;100216.75;;;19.09;100.00
2268;BME280;11052;43.338;25.502;2023-04-19T11:27:12;100210.47;;;19.24;100.00
2268;BME280;11052;43.338;25.502;2023-04-19T11:29:39;100214.56;;;19.28;100.00
2268;BME280;11052;43.338;25.502;2023-04-19T11:32:07;100210.56;;;19.23;100.00
2268;BME280;11052;43.338;25.502;2023-04-19T11:34:39;100205.75;;;19.29;100.00
2268;BME280;11052;43.338;25.502;2023-04-19T11:37:07;100207.00;;;19.49;100.00
2268;BME280;11052;43.338;25.502;2023-04-19T11:39:44;100206.28;;;19.47;100.00
2268;BME280;11052;43.338;25.502;2023-04-19T11:42:16;100200.88;;;19.23;100.00
2268;BME280;11052;43.338;25.502;2023-04-19T11:44:48;100206.34;;;19.20;100.00
2268;BME280;11052;43.338;25.502;2023-04-19T11:47:16;100198.81;;;19.41;100.00
2268;BME280;11052;43.338;25.502;2023-04-19T11:49:45;100190.91;;;19.41;100.00
2268;BME280;11052;43.338;25.502;2023-04-19T11:52:19;100198.31;;;19.61;100.00
2268;BME280;11052;43.338;25.502;2023-04-19T11:54:47;100188.13;;;20.06;100.00
2268;BME280;11052;43.338;25.502;2023-04-19T11:57:14;100188.38;;;20.27;100.00
2268;BME280;11052;43.338;25.502;2023-04-19T12:00:01;100179.09;;;19.97;100.00
2268;BME280;11052;43.338;25.502;2023-04-19T12:02:36;100184.91;;;19.39;100.00
2268;BME280;11052;43.338;25.502;2023-04-19T12:05:09;100185.13;;;19.23;100.00
2268;BME280;11052;43.338;25.502;2023-04-19T12:07:37;100182.75;;;18.81;100.00
2268;BME280;11052;43.338;25.502;2023-04-19T12:10:08;100182.66;;;18.55;100.00
2268;BME280;11052;43.338;25.502;2023-04-19T12:12:36;100182.59;;;18.43;100.00
2268;BME280;11052;43.338;25.502;2023-04-19T12:15:04;100181.13;;;18.24;100.00
2268;BME280;11052;43.338;25.502;2023-04-19T12:17:32;100173.97;;;18.14;100.00
2268;BME280;11052;43.338;25.502;2023-04-19T12:19:59;100172.88;;;17.89;100.00
2268;BME280;11052;43.338;25.502;2023-04-19T12:22:27;100177.56;;;17.56;100.00
2268;BME280;11052;43.338;25.502;2023-04-19T12:24:54;100171.56;;;17.25;100.00
2268;BME280;11052;43.338;25.502;2023-04-19T12:27:21;100167.19;;;16.96;100.00
2268;BME280;11052;43.338;25.502;2023-04-19T12:29:50;100166.06;;;16.54;100.00
2268;BME280;11052;43.338;25.502;2023-04-19T12:32:17;100167.06;;;16.37;100.00
2268;BME280;11052;43.338;25.502;2023-04-19T12:34:44;100169.59;;;16.23;100.00
2268;BME280;11052;43.338;25.502;2023-04-19T12:37:11;100166.97;;;16.08;100.00
2268;BME280;11052;43.338;25.502;2023-04-19T12:39:40;100162.50;;;15.94;100.00
2268;BME280;11052;43.338;25.502;2023-04-19T12:42:07;100155.50;;;15.94;100.00
2268;BME280;11052;43.338;25.502;2023-04-19T12:44:34;100160.06;;;15.91;100.00